Palm Harbor, Florida
Current Conditions -  °F | °C
As of 1:15 PM on Tuesday 21 Oct 2014 (Local Time) from KCLW Reporting Station
Scattered Clouds Scattered Clouds  
Wind Chill: 79°   Ceiling: Unl
Heat Index: 81°   Visibility: 10mi
Dew Point: 64°   Wind: 5mph
Humidity: 61%   Direction: 300°WNW
Pressure: 29.96"   Gusts: NA
Location:  28.08°N, 82.74°W
Report Text: KCLW 211715Z AUTO 30004KT 10SM SCT050 26/18 A2996 RMK AO2
Loading
Personal Weather Stations






























Interactive Weather Map
Tropical Storm Tracking
New forecast layout! Learn more

10-Day Weather Forecast

Advertisements
Track Severe Weather on mobile